Terminal Aerodrome Forecast
Issued by NWS

Home | Current Version | Previous Version | Text Only | Print | Product List | Glossary On
Versions: 1 2 3 4 5 6 7 8 9 10 11 12 13 14 15 16 17 18 19 20 21 22 23 24 25 26
000
FTUS42 KFFC 171700 RRA
TAFPDK
TAF
KPDK 171744Z 1718/1818 08010G18KT P6SM SCT040 BKN250
     FM180400 09007KT P6SM BKN035
     FM181000 07007KT P6SM BKN025 PROB30 1811/1815 -SHRA BKN015
     FM181500 07010KT P6SM SHRA OVC015=

USA.gov is the U.S. government's official web portal to all federal, state and local government web resources and services.